sensor_id;sensor_type;location;lat;lon;timestamp;pressure;altitude;pressure_sealevel;temperature;humidity
14232;BME280;7200;52.194;9.900;2024-02-26T00:02:10;98975.44;;;3.12;100.00
14232;BME280;7200;52.194;9.900;2024-02-26T00:04:36;98968.50;;;3.13;100.00
14232;BME280;7200;52.194;9.900;2024-02-26T00:07:01;98967.69;;;3.11;100.00
14232;BME280;7200;52.194;9.900;2024-02-26T00:09:26;98971.34;;;3.05;100.00
14232;BME280;7200;52.194;9.900;2024-02-26T00:11:52;98973.94;;;2.74;100.00
14232;BME280;7200;52.194;9.900;2024-02-26T00:14:17;98961.88;;;2.71;100.00
14232;BME280;7200;52.194;9.900;2024-02-26T00:16:42;98971.44;;;2.71;100.00
14232;BME280;7200;52.194;9.900;2024-02-26T00:19:10;98965.84;;;2.85;100.00
14232;BME280;7200;52.194;9.900;2024-02-26T00:21:35;98966.44;;;2.95;100.00
14232;BME280;7200;52.194;9.900;2024-02-26T00:24:00;98969.81;;;2.98;100.00
14232;BME280;7200;52.194;9.900;2024-02-26T00:26:26;98969.63;;;2.73;100.00
14232;BME280;7200;52.194;9.900;2024-02-26T00:28:51;98964.81;;;2.59;100.00
14232;BME280;7200;52.194;9.900;2024-02-26T00:31:16;98969.25;;;2.56;100.00
14232;BME280;7200;52.194;9.900;2024-02-26T00:33:42;98961.72;;;2.45;100.00
14232;BME280;7200;52.194;9.900;2024-02-26T00:36:07;98964.47;;;2.40;100.00
14232;BME280;7200;52.194;9.900;2024-02-26T00:38:32;98965.41;;;2.38;100.00
14232;BME280;7200;52.194;9.900;2024-02-26T00:40:58;98964.06;;;2.54;100.00
14232;BME280;7200;52.194;9.900;2024-02-26T00:43:23;98964.84;;;2.58;100.00
14232;BME280;7200;52.194;9.900;2024-02-26T00:45:48;98960.31;;;2.66;100.00
14232;BME280;7200;52.194;9.900;2024-02-26T00:48:14;98963.28;;;2.52;100.00
14232;BME280;7200;52.194;9.900;2024-02-26T00:50:39;98960.97;;;2.41;100.00
14232;BME280;7200;52.194;9.900;2024-02-26T00:53:05;98958.38;;;2.41;100.00
14232;BME280;7200;52.194;9.900;2024-02-26T00:55:30;98960.44;;;2.60;100.00
14232;BME280;7200;52.194;9.900;2024-02-26T00:57:55;98955.16;;;2.63;100.00
14232;BME280;7200;52.194;9.900;2024-02-26T01:00:21;98957.81;;;2.61;100.00
14232;BME280;7200;52.194;9.900;2024-02-26T01:02:46;98955.78;;;2.71;100.00
14232;BME280;7200;52.194;9.900;2024-02-26T01:05:12;98953.81;;;2.81;100.00
14232;BME280;7200;52.194;9.900;2024-02-26T01:07:37;98952.81;;;2.85;100.00
14232;BME280;7200;52.194;9.900;2024-02-26T01:10:03;98950.50;;;2.74;100.00
14232;BME280;7200;52.194;9.900;2024-02-26T01:12:29;98967.34;;;2.62;100.00
14232;BME280;7200;52.194;9.900;2024-02-26T01:14:55;98961.06;;;2.69;100.00
14232;BME280;7200;52.194;9.900;2024-02-26T01:17:20;98959.50;;;2.64;100.00
14232;BME280;7200;52.194;9.900;2024-02-26T01:19:45;98958.72;;;2.60;100.00
14232;BME280;7200;52.194;9.900;2024-02-26T01:22:10;98956.16;;;2.59;100.00
14232;BME280;7200;52.194;9.900;2024-02-26T01:24:36;98959.53;;;2.62;100.00
14232;BME280;7200;52.194;9.900;2024-02-26T01:27:01;98956.19;;;2.57;100.00
14232;BME280;7200;52.194;9.900;2024-02-26T01:29:26;98955.88;;;2.69;100.00
14232;BME280;7200;52.194;9.900;2024-02-26T01:31:52;98958.50;;;2.68;100.00
14232;BME280;7200;52.194;9.900;2024-02-26T01:34:17;98952.16;;;2.77;100.00
14232;BME280;7200;52.194;9.900;2024-02-26T01:36:43;98955.44;;;2.85;100.00
14232;BME280;7200;52.194;9.900;2024-02-26T01:39:09;98947.38;;;2.92;100.00
14232;BME280;7200;52.194;9.900;2024-02-26T01:41:40;98946.66;;;2.87;100.00
14232;BME280;7200;52.194;9.900;2024-02-26T01:44:06;98941.81;;;2.75;100.00
14232;BME280;7200;52.194;9.900;2024-02-26T01:46:33;98939.22;;;2.75;100.00
14232;BME280;7200;52.194;9.900;2024-02-26T01:48:59;98945.84;;;2.85;100.00
14232;BME280;7200;52.194;9.900;2024-02-26T01:51:25;98947.97;;;2.71;100.00
14232;BME280;7200;52.194;9.900;2024-02-26T01:53:51;98950.13;;;2.57;100.00
14232;BME280;7200;52.194;9.900;2024-02-26T01:56:17;98939.94;;;2.49;100.00
14232;BME280;7200;52.194;9.900;2024-02-26T01:58:44;98942.97;;;2.65;100.00
14232;BME280;7200;52.194;9.900;2024-02-26T02:01:10;98946.72;;;2.84;100.00
14232;BME280;7200;52.194;9.900;2024-02-26T02:03:36;98952.09;;;2.80;100.00
14232;BME280;7200;52.194;9.900;2024-02-26T02:06:02;98946.28;;;2.70;100.00
14232;BME280;7200;52.194;9.900;2024-02-26T02:08:28;98952.44;;;2.67;100.00
14232;BME280;7200;52.194;9.900;2024-02-26T02:10:53;98953.13;;;2.74;100.00
14232;BME280;7200;52.194;9.900;2024-02-26T02:13:19;98960.53;;;2.88;100.00
14232;BME280;7200;52.194;9.900;2024-02-26T02:15:44;98958.03;;;2.85;100.00
14232;BME280;7200;52.194;9.900;2024-02-26T02:18:09;98961.19;;;2.65;100.00
14232;BME280;7200;52.194;9.900;2024-02-26T02:20:35;98960.31;;;2.66;100.00
14232;BME280;7200;52.194;9.900;2024-02-26T02:23:01;98962.72;;;2.72;100.00
14232;BME280;7200;52.194;9.900;2024-02-26T02:25:27;98967.91;;;2.73;100.00
14232;BME280;7200;52.194;9.900;2024-02-26T02:27:56;98958.31;;;2.74;100.00
14232;BME280;7200;52.194;9.900;2024-02-26T02:30:24;98957.47;;;2.73;100.00
14232;BME280;7200;52.194;9.900;2024-02-26T02:32:50;98963.78;;;2.65;100.00
14232;BME280;7200;52.194;9.900;2024-02-26T02:35:16;98962.84;;;2.67;100.00
14232;BME280;7200;52.194;9.900;2024-02-26T02:37:41;98963.38;;;2.49;100.00
14232;BME280;7200;52.194;9.900;2024-02-26T02:40:07;98958.19;;;2.47;100.00
14232;BME280;7200;52.194;9.900;2024-02-26T02:42:32;98958.41;;;2.40;100.00
14232;BME280;7200;52.194;9.900;2024-02-26T02:44:58;98954.78;;;2.45;100.00
14232;BME280;7200;52.194;9.900;2024-02-26T02:47:23;98955.81;;;2.40;100.00
14232;BME280;7200;52.194;9.900;2024-02-26T02:49:48;98963.72;;;2.35;100.00
14232;BME280;7200;52.194;9.900;2024-02-26T02:52:13;98964.53;;;2.37;100.00
14232;BME280;7200;52.194;9.900;2024-02-26T02:54:39;98970.16;;;2.55;100.00
14232;BME280;7200;52.194;9.900;2024-02-26T02:57:07;98970.03;;;2.59;100.00
14232;BME280;7200;52.194;9.900;2024-02-26T02:59:32;98972.69;;;2.56;100.00
14232;BME280;7200;52.194;9.900;2024-02-26T03:01:57;98977.28;;;2.48;100.00
14232;BME280;7200;52.194;9.900;2024-02-26T03:04:22;98975.88;;;2.34;100.00
14232;BME280;7200;52.194;9.900;2024-02-26T03:06:48;98970.44;;;2.44;100.00
14232;BME280;7200;52.194;9.900;2024-02-26T03:09:13;98972.91;;;2.48;100.00
14232;BME280;7200;52.194;9.900;2024-02-26T03:11:38;98970.28;;;2.50;100.00
14232;BME280;7200;52.194;9.900;2024-02-26T03:14:05;98971.97;;;2.52;100.00
14232;BME280;7200;52.194;9.900;2024-02-26T03:16:30;98971.06;;;2.52;100.00
14232;BME280;7200;52.194;9.900;2024-02-26T03:18:55;98974.34;;;2.60;100.00
14232;BME280;7200;52.194;9.900;2024-02-26T03:21:21;98982.06;;;2.63;100.00
14232;BME280;7200;52.194;9.900;2024-02-26T03:23:46;98982.81;;;2.67;100.00
14232;BME280;7200;52.194;9.900;2024-02-26T03:26:12;98982.09;;;2.62;100.00
14232;BME280;7200;52.194;9.900;2024-02-26T03:28:40;98979.56;;;2.60;100.00
14232;BME280;7200;52.194;9.900;2024-02-26T03:31:05;98977.84;;;2.59;100.00
14232;BME280;7200;52.194;9.900;2024-02-26T03:33:30;98975.41;;;2.53;100.00
14232;BME280;7200;52.194;9.900;2024-02-26T03:35:55;98982.53;;;2.45;100.00
14232;BME280;7200;52.194;9.900;2024-02-26T03:38:21;98985.00;;;2.51;100.00
14232;BME280;7200;52.194;9.900;2024-02-26T03:40:46;98971.19;;;2.49;100.00
14232;BME280;7200;52.194;9.900;2024-02-26T03:43:12;98980.88;;;2.42;100.00
14232;BME280;7200;52.194;9.900;2024-02-26T03:45:38;98974.84;;;2.42;100.00
14232;BME280;7200;52.194;9.900;2024-02-26T03:48:03;98977.34;;;2.45;100.00
14232;BME280;7200;52.194;9.900;2024-02-26T03:50:29;98977.16;;;2.52;100.00
14232;BME280;7200;52.194;9.900;2024-02-26T03:52:54;98974.56;;;2.52;100.00
14232;BME280;7200;52.194;9.900;2024-02-26T03:55:19;98972.88;;;2.50;100.00
14232;BME280;7200;52.194;9.900;2024-02-26T03:57:50;98965.88;;;2.52;100.00
14232;BME280;7200;52.194;9.900;2024-02-26T04:00:15;98974.59;;;2.51;100.00
14232;BME280;7200;52.194;9.900;2024-02-26T04:02:41;98974.41;;;2.57;100.00
14232;BME280;7200;52.194;9.900;2024-02-26T04:05:09;98974.41;;;2.57;100.00
14232;BME280;7200;52.194;9.900;2024-02-26T04:07:35;98974.22;;;2.65;100.00
14232;BME280;7200;52.194;9.900;2024-02-26T04:10:00;98978.53;;;2.66;100.00
14232;BME280;7200;52.194;9.900;2024-02-26T04:12:28;98984.34;;;2.76;100.00
14232;BME280;7200;52.194;9.900;2024-02-26T04:14:54;98988.59;;;2.78;100.00
14232;BME280;7200;52.194;9.900;2024-02-26T04:17:19;98984.28;;;2.77;100.00
14232;BME280;7200;52.194;9.900;2024-02-26T04:19:44;98984.22;;;2.79;100.00
14232;BME280;7200;52.194;9.900;2024-02-26T04:22:10;98991.09;;;2.83;100.00
14232;BME280;7200;52.194;9.900;2024-02-26T04:24:36;98997.06;;;2.86;100.00
14232;BME280;7200;52.194;9.900;2024-02-26T04:27:01;98994.31;;;2.91;100.00
14232;BME280;7200;52.194;9.900;2024-02-26T04:29:26;98993.53;;;2.87;100.00
14232;BME280;7200;52.194;9.900;2024-02-26T04:31:52;98998.72;;;2.89;100.00
14232;BME280;7200;52.194;9.900;2024-02-26T04:34:17;99006.56;;;2.87;100.00
14232;BME280;7200;52.194;9.900;2024-02-26T04:36:43;99008.31;;;2.87;100.00
14232;BME280;7200;52.194;9.900;2024-02-26T04:39:08;99015.78;;;2.99;100.00
14232;BME280;7200;52.194;9.900;2024-02-26T04:41:33;99021.75;;;3.03;100.00
14232;BME280;7200;52.194;9.900;2024-02-26T04:43:59;99034.91;;;3.00;100.00
14232;BME280;7200;52.194;9.900;2024-02-26T04:46:24;99035.59;;;3.05;100.00
14232;BME280;7200;52.194;9.900;2024-02-26T04:48:50;99039.94;;;3.06;100.00
14232;BME280;7200;52.194;9.900;2024-02-26T04:51:15;99046.19;;;2.99;100.00
14232;BME280;7200;52.194;9.900;2024-02-26T04:53:41;99047.91;;;3.00;100.00
14232;BME280;7200;52.194;9.900;2024-02-26T04:56:06;99037.31;;;3.06;100.00
14232;BME280;7200;52.194;9.900;2024-02-26T04:58:31;99048.72;;;3.02;100.00
14232;BME280;7200;52.194;9.900;2024-02-26T05:00:56;99046.69;;;3.13;100.00
14232;BME280;7200;52.194;9.900;2024-02-26T05:03:22;99047.81;;;3.03;100.00
14232;BME280;7200;52.194;9.900;2024-02-26T05:05:47;99047.75;;;3.06;100.00
14232;BME280;7200;52.194;9.900;2024-02-26T05:08:12;99044.41;;;3.01;100.00
14232;BME280;7200;52.194;9.900;2024-02-26T05:10:39;99053.94;;;3.02;100.00
14232;BME280;7200;52.194;9.900;2024-02-26T05:13:08;99052.91;;;3.07;100.00
14232;BME280;7200;52.194;9.900;2024-02-26T05:15:35;99045.00;;;3.10;100.00
14232;BME280;7200;52.194;9.900;2024-02-26T05:18:00;99051.22;;;3.05;100.00
14232;BME280;7200;52.194;9.900;2024-02-26T05:20:26;99056.75;;;2.94;100.00
14232;BME280;7200;52.194;9.900;2024-02-26T05:22:51;99053.94;;;3.02;100.00
14232;BME280;7200;52.194;9.900;2024-02-26T05:25:17;99052.31;;;2.98;100.00
14232;BME280;7200;52.194;9.900;2024-02-26T05:27:43;99060.13;;;2.98;100.00
14232;BME280;7200;52.194;9.900;2024-02-26T05:30:09;99061.06;;;2.95;100.00
14232;BME280;7200;52.194;9.900;2024-02-26T05:32:34;99065.22;;;3.02;100.00
14232;BME280;7200;52.194;9.900;2024-02-26T05:35:00;99059.16;;;3.02;100.00
14232;BME280;7200;52.194;9.900;2024-02-26T05:37:25;99071.25;;;3.03;100.00
14232;BME280;7200;52.194;9.900;2024-02-26T05:39:50;99066.94;;;3.03;100.00
14232;BME280;7200;52.194;9.900;2024-02-26T05:42:16;99068.41;;;3.12;100.00
14232;BME280;7200;52.194;9.900;2024-02-26T05:44:41;99065.75;;;3.14;100.00
14232;BME280;7200;52.194;9.900;2024-02-26T05:47:06;99064.94;;;3.11;100.00
14232;BME280;7200;52.194;9.900;2024-02-26T05:49:31;99063.22;;;3.10;100.00
14232;BME280;7200;52.194;9.900;2024-02-26T05:51:58;99070.91;;;3.17;100.00
14232;BME280;7200;52.194;9.900;2024-02-26T05:54:23;99068.22;;;3.18;100.00
14232;BME280;7200;52.194;9.900;2024-02-26T05:56:49;99072.47;;;3.22;100.00
14232;BME280;7200;52.194;9.900;2024-02-26T05:59:14;99075.84;;;3.26;100.00
14232;BME280;7200;52.194;9.900;2024-02-26T06:01:41;99079.34;;;3.25;100.00
14232;BME280;7200;52.194;9.900;2024-02-26T06:04:06;99080.19;;;3.25;100.00
14232;BME280;7200;52.194;9.900;2024-02-26T06:06:31;99085.38;;;3.27;100.00
14232;BME280;7200;52.194;9.900;2024-02-26T06:08:57;99085.44;;;3.24;100.00
14232;BME280;7200;52.194;9.900;2024-02-26T06:11:22;99095.94;;;3.22;100.00
14232;BME280;7200;52.194;9.900;2024-02-26T06:13:48;99090.00;;;3.17;100.00
14232;BME280;7200;52.194;9.900;2024-02-26T06:16:13;99089.03;;;3.20;100.00
14232;BME280;7200;52.194;9.900;2024-02-26T06:18:38;99101.16;;;3.22;100.00
14232;BME280;7200;52.194;9.900;2024-02-26T06:21:04;99103.09;;;3.14;100.00
14232;BME280;7200;52.194;9.900;2024-02-26T06:23:29;99110.66;;;3.23;100.00
14232;BME280;7200;52.194;9.900;2024-02-26T06:25:54;99126.25;;;3.25;100.00
14232;BME280;7200;52.194;9.900;2024-02-26T06:28:20;99115.91;;;3.22;100.00
14232;BME280;7200;52.194;9.900;2024-02-26T06:30:45;99122.81;;;3.24;100.00
14232;BME280;7200;52.194;9.900;2024-02-26T06:33:11;99113.53;;;3.14;100.00
14232;BME280;7200;52.194;9.900;2024-02-26T06:35:36;99115.19;;;3.17;100.00
14232;BME280;7200;52.194;9.900;2024-02-26T06:38:01;99122.81;;;3.24;100.00
14232;BME280;7200;52.194;9.900;2024-02-26T06:40:27;99127.84;;;3.30;100.00
14232;BME280;7200;52.194;9.900;2024-02-26T06:42:53;99134.72;;;3.33;100.00
14232;BME280;7200;52.194;9.900;2024-02-26T06:45:18;99139.13;;;3.31;100.00
14232;BME280;7200;52.194;9.900;2024-02-26T06:47:46;99147.03;;;3.28;100.00
14232;BME280;7200;52.194;9.900;2024-02-26T06:50:12;99144.66;;;3.20;100.00
14232;BME280;7200;52.194;9.900;2024-02-26T06:52:39;99153.22;;;3.24;100.00
14232;BME280;7200;52.194;9.900;2024-02-26T06:55:04;99161.41;;;3.43;100.00
14232;BME280;7200;52.194;9.900;2024-02-26T06:57:30;99169.91;;;3.49;100.00
14232;BME280;7200;52.194;9.900;2024-02-26T06:59:55;99170.66;;;3.53;100.00
14232;BME280;7200;52.194;9.900;2024-02-26T07:02:21;99173.53;;;3.44;100.00
14232;BME280;7200;52.194;9.900;2024-02-26T07:04:46;99174.16;;;3.52;100.00
14232;BME280;7200;52.194;9.900;2024-02-26T07:07:11;99179.44;;;3.50;100.00
14232;BME280;7200;52.194;9.900;2024-02-26T07:09:36;99181.94;;;3.54;100.00
14232;BME280;7200;52.194;9.900;2024-02-26T07:12:02;99186.06;;;3.62;100.00
14232;BME280;7200;52.194;9.900;2024-02-26T07:14:28;99182.66;;;3.60;100.00
14232;BME280;7200;52.194;9.900;2024-02-26T07:16:54;99195.44;;;3.69;100.00
14232;BME280;7200;52.194;9.900;2024-02-26T07:19:19;99200.44;;;3.77;100.00
14232;BME280;7200;52.194;9.900;2024-02-26T07:21:44;99199.44;;;3.81;100.00
14232;BME280;7200;52.194;9.900;2024-02-26T07:24:10;99195.22;;;3.77;100.00
14232;BME280;7200;52.194;9.900;2024-02-26T07:26:35;99192.84;;;3.68;100.00
14232;BME280;7200;52.194;9.900;2024-02-26T07:29:00;99188.78;;;3.58;100.00
14232;BME280;7200;52.194;9.900;2024-02-26T07:31:26;99192.84;;;3.68;100.00
14232;BME280;7200;52.194;9.900;2024-02-26T07:33:51;99197.78;;;3.79;100.00
14232;BME280;7200;52.194;9.900;2024-02-26T07:36:17;99201.19;;;3.81;100.00
14232;BME280;7200;52.194;9.900;2024-02-26T07:38:42;99195.66;;;3.92;100.00
14232;BME280;7200;52.194;9.900;2024-02-26T07:41:08;99193.75;;;3.97;100.00
14232;BME280;7200;52.194;9.900;2024-02-26T07:43:33;99202.16;;;4.06;100.00
14232;BME280;7200;52.194;9.900;2024-02-26T07:45:59;99204.78;;;4.06;100.00
14232;BME280;7200;52.194;9.900;2024-02-26T07:48:24;99198.56;;;4.10;100.00
14232;BME280;7200;52.194;9.900;2024-02-26T07:50:49;99205.66;;;4.07;100.00
14232;BME280;7200;52.194;9.900;2024-02-26T07:53:15;99203.06;;;4.07;100.00
14232;BME280;7200;52.194;9.900;2024-02-26T07:55:40;99206.47;;;4.09;100.00
14232;BME280;7200;52.194;9.900;2024-02-26T07:58:05;99196.19;;;4.03;100.00
14232;BME280;7200;52.194;9.900;2024-02-26T08:00:31;99198.72;;;4.06;100.00
14232;BME280;7200;52.194;9.900;2024-02-26T08:02:56;99200.38;;;4.08;100.00
14232;BME280;7200;52.194;9.900;2024-02-26T08:05:21;99200.28;;;4.12;100.00
14232;BME280;7200;52.194;9.900;2024-02-26T08:07:46;99207.94;;;4.18;100.00
14232;BME280;7200;52.194;9.900;2024-02-26T08:10:12;99207.81;;;4.22;100.00
14232;BME280;7200;52.194;9.900;2024-02-26T08:12:37;99216.28;;;4.29;100.00
14232;BME280;7200;52.194;9.900;2024-02-26T08:15:03;99217.09;;;4.31;100.00
14232;BME280;7200;52.194;9.900;2024-02-26T08:17:28;99204.13;;;4.29;100.00
14232;BME280;7200;52.194;9.900;2024-02-26T08:19:53;99210.84;;;4.37;100.00
14232;BME280;7200;52.194;9.900;2024-02-26T08:22:19;99217.28;;;4.53;100.00
14232;BME280;7200;52.194;9.900;2024-02-26T08:24:44;99220.34;;;4.67;100.00
14232;BME280;7200;52.194;9.900;2024-02-26T08:27:09;99220.13;;;4.74;100.00
14232;BME280;7200;52.194;9.900;2024-02-26T08:29:35;99219.09;;;4.79;100.00
14232;BME280;7200;52.194;9.900;2024-02-26T08:32:01;99219.50;;;4.94;100.00
14232;BME280;7200;52.194;9.900;2024-02-26T08:34:26;99212.63;;;4.90;100.00
14232;BME280;7200;52.194;9.900;2024-02-26T08:36:51;99211.44;;;5.00;100.00
14232;BME280;7200;52.194;9.900;2024-02-26T08:39:17;99203.56;;;5.01;100.00
14232;BME280;7200;52.194;9.900;2024-02-26T08:41:43;99207.06;;;5.00;100.00
14232;BME280;7200;52.194;9.900;2024-02-26T08:44:09;99189.75;;;4.98;100.00
14232;BME280;7200;52.194;9.900;2024-02-26T08:46:34;99189.19;;;4.88;100.00
14232;BME280;7200;52.194;9.900;2024-02-26T08:48:59;99189.88;;;4.93;100.00
14232;BME280;7200;52.194;9.900;2024-02-26T08:51:25;99201.00;;;5.00;100.00
14232;BME280;7200;52.194;9.900;2024-02-26T08:53:50;99212.84;;;5.10;100.00
14232;BME280;7200;52.194;9.900;2024-02-26T08:56:16;99218.72;;;5.17;100.00
14232;BME280;7200;52.194;9.900;2024-02-26T08:58:43;99203.78;;;5.20;100.00
14232;BME280;7200;52.194;9.900;2024-02-26T09:01:08;99202.50;;;5.32;100.00
14232;BME280;7200;52.194;9.900;2024-02-26T09:03:34;99204.56;;;5.47;100.00
14232;BME280;7200;52.194;9.900;2024-02-26T09:05:59;99208.31;;;5.40;100.00
14232;BME280;7200;52.194;9.900;2024-02-26T09:08:25;99204.00;;;5.39;100.00
14232;BME280;7200;52.194;9.900;2024-02-26T09:10:50;99208.03;;;5.48;100.00
14232;BME280;7200;52.194;9.900;2024-02-26T09:13:15;99207.53;;;5.63;100.00
14232;BME280;7200;52.194;9.900;2024-02-26T09:15:41;99205.47;;;5.72;100.00
14232;BME280;7200;52.194;9.900;2024-02-26T09:18:06;99205.28;;;5.76;100.00
14232;BME280;7200;52.194;9.900;2024-02-26T09:20:31;99205.00;;;5.60;100.00
14232;BME280;7200;52.194;9.900;2024-02-26T09:22:56;99203.75;;;5.71;100.00
14232;BME280;7200;52.194;9.900;2024-02-26T09:25:22;99216.59;;;5.78;100.00
14232;BME280;7200;52.194;9.900;2024-02-26T09:27:47;99213.69;;;5.86;100.00
14232;BME280;7200;52.194;9.900;2024-02-26T09:30:13;99210.84;;;5.92;100.00
14232;BME280;7200;52.194;9.900;2024-02-26T09:32:39;99210.31;;;5.82;100.00
14232;BME280;7200;52.194;9.900;2024-02-26T09:35:07;99207.47;;;5.89;100.00
14232;BME280;7200;52.194;9.900;2024-02-26T09:37:33;99203.88;;;5.91;100.00
14232;BME280;7200;52.194;9.900;2024-02-26T09:39:59;99211.63;;;5.94;100.00
14232;BME280;7200;52.194;9.900;2024-02-26T09:42:27;99209.28;;;5.87;100.00
14232;BME280;7200;52.194;9.900;2024-02-26T09:44:59;99212.94;;;5.82;100.00
14232;BME280;7200;52.194;9.900;2024-02-26T09:47:28;99215.75;;;5.76;100.00
14232;BME280;7200;52.194;9.900;2024-02-26T09:49:56;99236.66;;;5.78;100.00
14232;BME280;7200;52.194;9.900;2024-02-26T09:52:23;99235.41;;;5.88;100.00
14232;BME280;7200;52.194;9.900;2024-02-26T09:54:49;99234.81;;;5.80;100.00
14232;BME280;7200;52.194;9.900;2024-02-26T09:57:15;99242.38;;;5.88;100.00
14232;BME280;7200;52.194;9.900;2024-02-26T09:59:43;99239.56;;;5.94;100.00
14232;BME280;7200;52.194;9.900;2024-02-26T10:02:14;99250.88;;;5.96;100.00
14232;BME280;7200;52.194;9.900;2024-02-26T10:04:41;99249.94;;;5.97;100.00
14232;BME280;7200;52.194;9.900;2024-02-26T10:07:11;99251.78;;;5.93;100.00
14232;BME280;7200;52.194;9.900;2024-02-26T10:09:36;99256.97;;;6.20;100.00
14232;BME280;7200;52.194;9.900;2024-02-26T10:12:03;99261.19;;;6.24;100.00
14232;BME280;7200;52.194;9.900;2024-02-26T10:14:28;99261.28;;;6.45;100.00
14232;BME280;7200;52.194;9.900;2024-02-26T10:16:53;99265.72;;;6.42;100.00
14232;BME280;7200;52.194;9.900;2024-02-26T10:19:26;99267.88;;;6.55;100.00
14232;BME280;7200;52.194;9.900;2024-02-26T10:21:59;99268.28;;;6.66;100.00
14232;BME280;7200;52.194;9.900;2024-02-26T10:24:26;99266.31;;;6.73;100.00
14232;BME280;7200;52.194;9.900;2024-02-26T10:26:52;99269.97;;;6.69;100.00
14232;BME280;7200;52.194;9.900;2024-02-26T10:29:18;99275.06;;;6.72;100.00
14232;BME280;7200;52.194;9.900;2024-02-26T10:31:44;99270.91;;;6.66;100.00
14232;BME280;7200;52.194;9.900;2024-02-26T10:34:10;99268.13;;;6.71;100.00
14232;BME280;7200;52.194;9.900;2024-02-26T10:36:36;99274.81;;;6.78;100.00
14232;BME280;7200;52.194;9.900;2024-02-26T10:39:03;99271.19;;;6.82;100.00
14232;BME280;7200;52.194;9.900;2024-02-26T10:41:30;99283.31;;;6.85;100.00
14232;BME280;7200;52.194;9.900;2024-02-26T10:43:55;99280.78;;;6.81;100.00
14232;BME280;7200;52.194;9.900;2024-02-26T10:46:20;99274.59;;;6.84;100.00
14232;BME280;7200;52.194;9.900;2024-02-26T10:48:52;99279.69;;;6.87;100.00
14232;BME280;7200;52.194;9.900;2024-02-26T10:51:29;99279.16;;;6.79;100.00
14232;BME280;7200;52.194;9.900;2024-02-26T10:53:57;99276.44;;;6.82;100.00
14232;BME280;7200;52.194;9.900;2024-02-26T10:56:34;99265.94;;;6.82;100.00
14232;BME280;7200;52.194;9.900;2024-02-26T10:59:00;99267.63;;;6.83;100.00
14232;BME280;7200;52.194;9.900;2024-02-26T11:01:27;99266.72;;;6.84;100.00
14232;BME280;7200;52.194;9.900;2024-02-26T11:03:55;99265.44;;;6.94;100.00
14232;BME280;7200;52.194;9.900;2024-02-26T11:06:21;99268.53;;;7.04;100.00
14232;BME280;7200;52.194;9.900;2024-02-26T11:08:50;99263.06;;;7.10;100.00
14232;BME280;7200;52.194;9.900;2024-02-26T11:11:17;99270.78;;;7.13;100.00
14232;BME280;7200;52.194;9.900;2024-02-26T11:13:46;99270.84;;;7.12;100.00
14232;BME280;7200;52.194;9.900;2024-02-26T11:16:16;99264.31;;;7.22;100.00
14232;BME280;7200;52.194;9.900;2024-02-26T11:18:43;99266.41;;;7.34;100.00
14232;BME280;7200;52.194;9.900;2024-02-26T11:21:17;99269.75;;;7.38;100.00
14232;BME280;7200;52.194;9.900;2024-02-26T11:23:52;99271.09;;;7.48;100.00
14232;BME280;7200;52.194;9.900;2024-02-26T11:26:19;99278.50;;;7.59;100.00
14232;BME280;7200;52.194;9.900;2024-02-26T11:28:45;99276.53;;;7.64;100.00
14232;BME280;7200;52.194;9.900;2024-02-26T11:31:12;99289.00;;;7.79;100.00
14232;BME280;7200;52.194;9.900;2024-02-26T11:33:38;99286.38;;;7.79;100.00
14232;BME280;7200;52.194;9.900;2024-02-26T11:36:11;99294.84;;;7.86;100.00
14232;BME280;7200;52.194;9.900;2024-02-26T11:38:37;99300.56;;;7.75;100.00
14232;BME280;7200;52.194;9.900;2024-02-26T11:41:04;99301.81;;;7.67;100.00
14232;BME280;7200;52.194;9.900;2024-02-26T11:43:52;99301.09;;;7.84;100.00
14232;BME280;7200;52.194;9.900;2024-02-26T11:46:31;99301.09;;;7.84;100.00
14232;BME280;7200;52.194;9.900;2024-02-26T11:49:01;99307.75;;;7.91;100.00
14232;BME280;7200;52.194;9.900;2024-02-26T11:51:28;99313.41;;;7.82;100.00
14232;BME280;7200;52.194;9.900;2024-02-26T11:53:57;99307.56;;;7.95;100.00
14232;BME280;7200;52.194;9.900;2024-02-26T11:56:24;99296.53;;;7.87;100.00
14232;BME280;7200;52.194;9.900;2024-02-26T12:01:40;99292.28;;;7.85;100.00
14232;BME280;7200;52.194;9.900;2024-02-26T12:04:07;99304.69;;;7.81;100.00
14232;BME280;7200;52.194;9.900;2024-02-26T12:06:45;99300.81;;;7.90;100.00
14232;BME280;7200;52.194;9.900;2024-02-26T12:09:11;99306.06;;;7.90;100.00
14232;BME280;7200;52.194;9.900;2024-02-26T12:11:38;99310.22;;;7.95;100.00
14232;BME280;7200;52.194;9.900;2024-02-26T12:14:05;99312.44;;;8.05;100.00
14232;BME280;7200;52.194;9.900;2024-02-26T12:16:36;99309.41;;;8.14;100.00
14232;BME280;7200;52.194;9.900;2024-02-26T12:19:06;99316.78;;;8.25;100.00
14232;BME280;7200;52.194;9.900;2024-02-26T12:21:36;99316.66;;;8.28;100.00
14232;BME280;7200;52.194;9.900;2024-02-26T12:24:12;99318.31;;;8.49;100.00
14232;BME280;7200;52.194;9.900;2024-02-26T12:26:39;99324.41;;;8.51;100.00
14232;BME280;7200;52.194;9.900;2024-02-26T12:29:04;99329.19;;;8.61;100.00
14232;BME280;7200;52.194;9.900;2024-02-26T12:31:31;99330.78;;;8.65;100.00
14232;BME280;7200;52.194;9.900;2024-02-26T12:33:56;99336.66;;;8.70;100.00
14232;BME280;7200;52.194;9.900;2024-02-26T12:36:22;99331.81;;;8.80;100.00
14232;BME280;7200;52.194;9.900;2024-02-26T12:38:49;99332.91;;;8.75;100.00
14232;BME280;7200;52.194;9.900;2024-02-26T12:41:16;99330.63;;;8.68;100.00
14232;BME280;7200;52.194;9.900;2024-02-26T12:43:41;99336.53;;;8.73;100.00
14232;BME280;7200;52.194;9.900;2024-02-26T12:46:06;99331.56;;;8.67;100.00
14232;BME280;7200;52.194;9.900;2024-02-26T12:48:32;99339.22;;;8.71;100.00
14232;BME280;7200;52.194;9.900;2024-02-26T12:50:57;99340.78;;;8.75;100.00
14232;BME280;7200;52.194;9.900;2024-02-26T12:53:22;99334.19;;;8.67;100.00
14232;BME280;7200;52.194;9.900;2024-02-26T12:55:48;99343.66;;;8.71;100.00
14232;BME280;7200;52.194;9.900;2024-02-26T12:58:14;99347.97;;;8.72;100.00
14232;BME280;7200;52.194;9.900;2024-02-26T13:00:40;99346.34;;;8.69;100.00
14232;BME280;7200;52.194;9.900;2024-02-26T13:03:06;99353.59;;;8.83;100.00
14232;BME280;7200;52.194;9.900;2024-02-26T13:05:32;99358.28;;;8.95;100.00
14232;BME280;7200;52.194;9.900;2024-02-26T13:07:58;99366.09;;;9.16;100.00